Home > Products > Valid Products > TAF

000
FTUS41 KILN 271700
TAFILN
TAF
KILN 271720Z 2718/2818 35012KT P6SM SCT040
     FM280100 34003KT P6SM FEW040
     FM281300 05010KT P6SM FEW045=



000
FTUS41 KILN 271700
TAFCVG
TAF
KCVG 271720Z 2718/2824 34010KT P6SM SCT040
     FM280100 01004KT P6SM SKC
     FM281300 05009KT P6SM FEW045=



000
FTUS41 KILN 271700
TAFCMH
TAF
KCMH 271720Z 2718/2818 35014KT P6SM BKN035
     FM280100 36004KT P6SM FEW040
     FM281300 05010KT P6SM FEW045=



000
FTUS41 KILN 271700
TAFILN
TAF
KILN 271720Z 2718/2818 35012KT P6SM SCT040
     FM280100 34003KT P6SM FEW040
     FM281300 05010KT P6SM FEW045=



000
FTUS41 KILN 271700
TAFDAY
TAF
KDAY 271720Z 2718/2818 35012KT P6SM SCT040
     FM280100 35004KT P6SM FEW040
     FM281300 05010KT P6SM FEW045=



000
FTUS41 KILN 271700
TAFLCK
TAF
KLCK 271720Z 2718/2818 35012KT P6SM BKN035
     FM280100 36004KT P6SM FEW040
     FM281300 05010KT P6SM FEW045=



000
FTUS41 KILN 271700
TAFLUK
TAF
KLUK 271720Z 2718/2818 34010KT P6SM SCT045
     FM280100 00000KT P6SM SKC
      TEMPO 2812/2813 4SM BR
     FM281300 07008KT P6SM FEW050=



000
FTUS41 KILN 271700
TAFDAY
TAF
KDAY 271720Z 2718/2818 35012KT P6SM SCT040
     FM280100 35004KT P6SM FEW040
     FM281300 05010KT P6SM FEW045=



000
FTUS41 KILN 271700
TAFLUK
TAF
KLUK 271720Z 2718/2818 34010KT P6SM SCT045
     FM280100 00000KT P6SM SKC
      TEMPO 2812/2813 4SM BR
     FM281300 07008KT P6SM FEW050=



000
FTUS41 KILN 271700
TAFCMH
TAF
KCMH 271720Z 2718/2818 35014KT P6SM BKN035
     FM280100 36004KT P6SM FEW040
     FM281300 05010KT P6SM FEW045=



000
FTUS41 KILN 271700
TAFCVG
TAF
KCVG 271720Z 2718/2824 34010KT P6SM SCT040
     FM280100 01004KT P6SM SKC
     FM281300 05009KT P6SM FEW045=



000
FTUS41 KILN 271700
TAFLCK
TAF
KLCK 271720Z 2718/2818 35012KT P6SM BKN035
     FM280100 36004KT P6SM FEW040
     FM281300 05010KT P6SM FEW045=



000
FTUS41 KILN 271500 AAA
TAFCVG
TAF AMD
KCVG 271554Z 2716/2818 34008KT P6SM SCT040
     FM280100 01004KT P6SM SKC
     FM281300 05009KT P6SM SKC=



000
FTUS41 KILN 271200 AAA
TAFLUK
TAF AMD
KLUK 271208Z 2712/2812 03003KT P6SM SKC
      TEMPO 2712/2713 1/4SM FG
     FM271500 34010KT P6SM SCT040
     FM280100 00000KT P6SM SKC=



000
FTUS41 KILN 271200 AAA
TAFLUK
TAF AMD
KLUK 271208Z 2712/2812 03003KT P6SM SKC
      TEMPO 2712/2713 1/4SM FG
     FM271500 34010KT P6SM SCT040
     FM280100 00000KT P6SM SKC=



000
FTUS41 KILN 271100
TAFCMH
TAF
KCMH 271120Z 2712/2812 36005KT P6SM SKC
     FM271500 34012KT P6SM BKN035
     FM280100 36004KT P6SM FEW040=



000
FTUS41 KILN 271100
TAFLUK
TAF
KLUK 271120Z 2712/2812 03003KT P6SM SKC
     FM271500 34010KT P6SM SCT040
     FM280100 00000KT P6SM SKC=



000
FTUS41 KILN 271100
TAFDAY
TAF
KDAY 271120Z 2712/2812 09005KT P6SM SKC
     FM271400 34012KT P6SM BKN040
     FM280100 35004KT P6SM FEW040=



000
FTUS41 KILN 271100
TAFILN
TAF
KILN 271120Z 2712/2812 02003KT P6SM SKC
     FM271400 34012KT P6SM BKN040
     FM280100 34003KT P6SM FEW040=



000
FTUS41 KILN 271100
TAFCVG
TAF
KCVG 271120Z 2712/2818 27005KT P6SM SKC
     FM271500 34011KT P6SM SCT040
     FM280100 01004KT P6SM SKC
     FM281300 05009KT P6SM SKC=



000
FTUS41 KILN 271100
TAFLCK
TAF
KLCK 271120Z 2712/2812 00000KT P6SM SKC
     FM271500 34012KT P6SM BKN035
     FM280100 36004KT P6SM FEW040=



000
FTUS41 KILN 270800 AAA
TAFLCK
TAF AMD
KLCK 270856Z 2709/2806 32003KT P6SM FEW070
     FM271500 34012KT P6SM BKN035
     FM280100 36004KT P6SM SCT040=



000
FTUS41 KILN 270800 AAA
TAFDAY
TAF AMD
KDAY 270856Z 2709/2806 34006KT P6SM BKN080
     FM271400 34012KT P6SM BKN040
     FM280100 35004KT P6SM SCT040=



000
FTUS41 KILN 270800 AAA
TAFILN
TAF AMD
KILN 270856Z 2709/2806 01004KT P6SM FEW070
     FM271400 34012KT P6SM BKN040
     FM280100 34003KT P6SM SCT040=



000
FTUS41 KILN 270800 AAA
TAFCMH
TAF AMD
KCMH 270856Z 2709/2806 01004KT P6SM FEW070
     FM271500 34012KT P6SM BKN035
     FM280100 36004KT P6SM SCT040=



000
FTUS41 KILN 270800 AAA
TAFLUK
TAF AMD
KLUK 270856Z 2709/2806 15003KT P6SM FEW070
     FM271500 34010KT P6SM BKN040
     FM280100 00000KT P6SM SCT040=



000
FTUS41 KILN 270800 AAA
TAFCVG
TAF AMD
KCVG 270856Z 2709/2812 00000KT P6SM FEW070
     FM271500 34011KT P6SM BKN040
     FM280100 01004KT P6SM SCT040=



000
FTUS41 KILN 270500
TAFCMH
TAF
KCMH 270534Z 2706/2806 36003KT P6SM SCT070
     FM271500 34012KT P6SM BKN035
     FM280100 36004KT P6SM SCT040=



000
FTUS41 KILN 270500
TAFLUK
TAF
KLUK 270534Z 2706/2806 00000KT P6SM SCT070
     FM271500 34010KT P6SM BKN040
     FM280100 00000KT P6SM SCT040=



000
FTUS41 KILN 270500
TAFDAY
TAF
KDAY 270534Z 2706/2806 35003KT P6SM BKN070
     FM271400 34012KT P6SM BKN040
     FM280100 35004KT P6SM SCT040=



000
FTUS41 KILN 270500
TAFLCK
TAF
KLCK 270534Z 2706/2806 35004KT P6SM SCT070
     FM271500 34012KT P6SM BKN035
     FM280100 36004KT P6SM SCT040=



000
FTUS41 KILN 270500
TAFILN
TAF
KILN 270534Z 2706/2806 36005KT P6SM SCT070
     FM271400 34012KT P6SM BKN040
     FM280100 34003KT P6SM SCT040=



000
FTUS41 KILN 270500
TAFCVG
TAF
KCVG 270534Z 2706/2812 34003KT P6SM SCT070
     FM271500 34011KT P6SM BKN040
     FM280100 01004KT P6SM SCT040=



000
FTUS41 KILN 270300 AAA
TAFLUK
TAF AMD
KLUK 270302Z 2703/2724 VRB03KT P6SM BKN050
     FM271500 34012KT P6SM BKN040=



000
FTUS41 KILN 270300 AAA
TAFDAY
TAF AMD
KDAY 270301Z 2703/2724 36006KT P6SM BKN050
     FM271400 34014KT P6SM BKN040=



000
FTUS41 KILN 270300 AAA
TAFCVG
TAF AMD
KCVG 270301Z 2703/2806 35005KT P6SM BKN050
     FM271500 34012KT P6SM BKN040
     FM280100 02006KT P6SM SCT040=



000
FTUS41 KILN 262300
TAFCMH
TAF
KCMH 262336Z 2700/2724 35007KT P6SM SKC
     FM271000 33006KT P6SM SCT040
     FM271300 34014KT P6SM OVC040=



000
FTUS41 KILN 262300
TAFILN
TAF
KILN 262336Z 2700/2724 36006KT P6SM SCT050
     FM271400 34012KT P6SM BKN045=



000
FTUS41 KILN 262300
TAFLCK
TAF
KLCK 262336Z 2700/2724 35007KT P6SM SKC
     FM271000 33006KT P6SM SCT040
     FM271300 34014KT P6SM OVC040=



000
FTUS41 KILN 262300
TAFCVG
TAF
KCVG 262336Z 2700/2806 35005KT P6SM SCT050
     FM271500 34012KT P6SM BKN040
     FM280100 02006KT P6SM SCT040=



000
FTUS41 KILN 262300
TAFLUK
TAF
KLUK 262336Z 2700/2724 VRB03KT P6SM SCT050
     FM271500 34012KT P6SM BKN040=



000
FTUS41 KILN 262300
TAFDAY
TAF
KDAY 262336Z 2700/2724 36006KT P6SM SCT050
     FM271400 34014KT P6SM BKN040=



000
FTUS41 KILN 262100 AAA
TAFCVG
TAF AMD
KCVG 262108Z 2621/2724 01010KT P6SM SCT045
     FM270100 35004KT P6SM SCT040
     FM271300 32007KT P6SM BKN040
     FM272000 35011KT P6SM OVC040=



000
FTUS41 KILN 262100 AAA
TAFCVG
TAF AMD
KCVG 262108Z 2621/2724 01010KT P6SM SCT045
     FM270100 35004KT P6SM SCT040
     FM271300 32007KT P6SM BKN040
     FM272000 35011KT P6SM OVC040=



000
FTUS41 KILN 261700
TAFDAY
TAF
KDAY 261720Z 2618/2718 01014KT P6SM SCT045
     FM270100 36006KT P6SM SCT040
     FM271300 32010KT P6SM BKN040=



000
FTUS41 KILN 261700
TAFDAY
TAF
KDAY 261720Z 2618/2718 01014KT P6SM SCT045
     FM270100 36006KT P6SM SCT040
     FM271300 32010KT P6SM BKN040=



000
FTUS41 KILN 261700
TAFCVG
TAF
KCVG 261720Z 2618/2724 36013KT P6SM SCT045
     FM270100 35004KT P6SM SCT040
     FM271300 32007KT P6SM BKN040
     FM272000 35011KT P6SM OVC040=



000
FTUS41 KILN 261700
TAFILN
TAF
KILN 261720Z 2618/2718 01014KT P6SM SCT040
     FM270100 36006KT P6SM SCT040
     FM271300 32010KT P6SM BKN035=



000
FTUS41 KILN 261700
TAFLCK
TAF
KLCK 261720Z 2618/2718 36013KT P6SM FEW040
     FM270100 35007KT P6SM SCT040
     FM271300 33010KT P6SM OVC040=



000
FTUS41 KILN 261700
TAFCMH
TAF
KCMH 261720Z 2618/2718 36012KT P6SM FEW040
     FM270100 35007KT P6SM SCT040
     FM271300 33010KT P6SM OVC040=



000
FTUS41 KILN 261700
TAFLUK
TAF
KLUK 261720Z 2618/2718 01011KT P6SM SCT050
     FM270100 00000KT P6SM SCT045
     FM271300 30006KT P6SM BKN045=



000
FTUS41 KILN 261700
TAFLCK
TAF
KLCK 261720Z 2618/2718 36013KT P6SM FEW040
     FM270100 35007KT P6SM SCT040
     FM271300 33010KT P6SM OVC040=



000
FTUS41 KILN 261700
TAFCVG
TAF
KCVG 261720Z 2618/2724 36013KT P6SM SCT045
     FM270100 35004KT P6SM SCT040
     FM271300 32007KT P6SM BKN040
     FM272000 35011KT P6SM OVC040=



000
FTUS41 KILN 261700
TAFILN
TAF
KILN 261720Z 2618/2718 01014KT P6SM SCT040
     FM270100 36006KT P6SM SCT040
     FM271300 32010KT P6SM BKN035=



000
FTUS41 KILN 261700
TAFLUK
TAF
KLUK 261720Z 2618/2718 01011KT P6SM SCT050
     FM270100 00000KT P6SM SCT045
     FM271300 30006KT P6SM BKN045=



000
FTUS41 KILN 261700
TAFCMH
TAF
KCMH 261720Z 2618/2718 36012KT P6SM FEW040
     FM270100 35007KT P6SM SCT040
     FM271300 33010KT P6SM OVC040=



000
FTUS41 KILN 261400 AAA
TAFCVG
TAF AMD
KCVG 261457Z 2615/2718 01012KT P6SM BKN040
     FM270000 36005KT P6SM SCT040
     FM271300 32009KT P6SM SCT040=



000
FTUS41 KILN 261100
TAFDAY
TAF
KDAY 261120Z 2612/2712 01010KT P6SM OVC100
     FM261300 01014G22KT P6SM SCT040
     FM270000 36006KT P6SM SCT040=



000
FTUS41 KILN 261100
TAFCMH
TAF
KCMH 261120Z 2612/2712 01006KT P6SM SCT060 BKN110
     FM261300 01012KT P6SM FEW040
     FM270000 35008KT P6SM SCT040=



000
FTUS41 KILN 261100
TAFCVG
TAF
KCVG 261120Z 2612/2718 01010KT P6SM OVC040
     FM261300 01012KT P6SM BKN040
     FM270000 36005KT P6SM SCT040
     FM271300 32009KT P6SM SCT040=



000
FTUS41 KILN 261100
TAFILN
TAF
KILN 261120Z 2612/2712 01009KT P6SM SCT045 OVC100
     FM261400 01012KT P6SM SCT040
     FM270000 36006KT P6SM SCT040=



000
FTUS41 KILN 261100
TAFLUK
TAF
KLUK 261120Z 2612/2712 01006KT P6SM OVC045
     FM261300 01012KT P6SM BKN040
     FM270000 00000KT P6SM SCT040=



000
FTUS41 KILN 261100
TAFLCK
TAF
KLCK 261120Z 2612/2712 36010KT P6SM SCT060 OVC110
     FM261300 01012KT P6SM FEW040
     FM270000 35007KT P6SM SCT040=



000
FTUS41 KILN 260800 AAA
TAFDAY
TAF AMD
KDAY 260857Z 2609/2706 02012KT P6SM OVC045
     FM261300 01014KT P6SM SCT040
     FM270000 36006KT P6SM SCT040=



000
FTUS41 KILN 260800 AAA
TAFDAY
TAF AMD
KDAY 260857Z 2609/2706 02012KT P6SM OVC045
     FM261300 01014KT P6SM SCT040
     FM270000 36006KT P6SM SCT040=



000
FTUS41 KILN 260800 AAC
TAFCVG
TAF AMD
KCVG 260857Z 2609/2712 01012KT P6SM OVC040
     FM261300 01012KT P6SM BKN040
     FM270000 36005KT P6SM SCT040=



000
FTUS41 KILN 260800 AAB
TAFLUK
TAF AMD
KLUK 260857Z 2609/2706 02006KT P6SM OVC040
     FM261300 01012KT P6SM BKN040
     FM270000 00000KT P6SM SCT040=



000
FTUS41 KILN 260800 AAA
TAFLCK
TAF AMD
KLCK 260857Z 2609/2706 01008KT P6SM OVC050
     FM261300 01012KT P6SM FEW040
     FM270000 35007KT P6SM SCT040=



000
FTUS41 KILN 260800 AAA
TAFILN
TAF AMD
KILN 260857Z 2609/2706 02008KT P6SM BKN040 OVC090
     FM261300 01012KT P6SM SCT040
     FM270000 36006KT P6SM SCT040=



000
FTUS41 KILN 260800 AAA
TAFCMH
TAF AMD
KCMH 260857Z 2609/2706 36007KT P6SM OVC060
     FM261300 01012KT P6SM FEW040
     FM270000 35008KT P6SM SCT040=



000
FTUS41 KILN 260800 AAB
TAFLUK
TAF AMD
KLUK 260857Z 2609/2706 02006KT P6SM OVC040
     FM261300 01012KT P6SM BKN040
     FM270000 00000KT P6SM SCT040=



000
FTUS41 KILN 260800 AAA
TAFLCK
TAF AMD
KLCK 260857Z 2609/2706 01008KT P6SM OVC050
     FM261300 01012KT P6SM FEW040
     FM270000 35007KT P6SM SCT040=



000
FTUS41 KILN 260800 AAA
TAFILN
TAF AMD
KILN 260857Z 2609/2706 02008KT P6SM BKN040 OVC090
     FM261300 01012KT P6SM SCT040
     FM270000 36006KT P6SM SCT040=



000
FTUS41 KILN 260800 AAC
TAFCVG
TAF AMD
KCVG 260857Z 2609/2712 01012KT P6SM OVC040
     FM261300 01012KT P6SM BKN040
     FM270000 36005KT P6SM SCT040=



000
FTUS41 KILN 260800 AAA
TAFCMH
TAF AMD
KCMH 260857Z 2609/2706 36007KT P6SM OVC060
     FM261300 01012KT P6SM FEW040
     FM270000 35008KT P6SM SCT040=



000
FTUS41 KILN 260800 AAB
TAFCVG
TAF AMD
KCVG 260805Z 2608/2712 02009KT P6SM OVC035
     FM261300 01012KT P6SM BKN040
     FM270000 36005KT P6SM SCT040=



000
FTUS41 KILN 260700 AAA
TAFLUK
TAF AMD
KLUK 260723Z 2607/2706 02007KT P6SM BKN040 OVC080
     FM261300 01012KT P6SM BKN040
     FM270000 00000KT P6SM SCT040=



000
FTUS41 KILN 260700 AAA
TAFLUK
TAF AMD
KLUK 260723Z 2607/2706 02007KT P6SM BKN040 OVC080
     FM261300 01012KT P6SM BKN040
     FM270000 00000KT P6SM SCT040=



000
FTUS41 KILN 260700 AAA
TAFCVG
TAF AMD
KCVG 260723Z 2607/2712 02011KT P6SM FEW015 OVC030
     FM261300 01012KT P6SM BKN040
     FM270000 36005KT P6SM SCT040=



000
FTUS41 KILN 260700 AAA
TAFCVG
TAF AMD
KCVG 260723Z 2607/2712 02011KT P6SM FEW015 OVC030
     FM261300 01012KT P6SM BKN040
     FM270000 36005KT P6SM SCT040=



000
FTUS41 KILN 260500
TAFCMH
TAF
KCMH 260530Z 2606/2706 01008KT P6SM OVC045
     FM261300 01012KT P6SM FEW040
     FM270000 35008KT P6SM SCT040=



000
FTUS41 KILN 260500
TAFLUK
TAF
KLUK 260530Z 2606/2706 04008KT P6SM OVC026
     FM260800 03012KT P6SM SCT012 BKN025
     FM261300 01012KT P6SM BKN040
     FM270000 00000KT P6SM SCT040=



000
FTUS41 KILN 260500
TAFLCK
TAF
KLCK 260530Z 2606/2706 36009KT P6SM OVC045
     FM261300 01012KT P6SM FEW040
     FM270000 35007KT P6SM SCT040=



000
FTUS41 KILN 260500
TAFILN
TAF
KILN 260530Z 2606/2706 03012KT P6SM VCSH OVC035
     FM260700 02012G20KT P6SM SCT015 BKN040
     FM261300 01012KT P6SM SCT040
     FM270000 36006KT P6SM SCT040=



000
FTUS41 KILN 260500
TAFCVG
TAF
KCVG 260530Z 2606/2712 04013KT P6SM FEW014 BKN020 OVC025
     FM260800 03012G20KT P6SM SCT008 BKN025
     FM261300 01012KT P6SM BKN040
     FM270000 36005KT P6SM SCT040=



000
FTUS41 KILN 260500
TAFDAY
TAF
KDAY 260530Z 2606/2706 03010KT P6SM OVC040
     FM261300 01014KT P6SM SCT040
     FM270000 36006KT P6SM SCT040=



000
FTUS41 KILN 260200 AAA
TAFLCK
TAF AMD
KLCK 260223Z 2602/2624 04014KT P6SM BKN040
      TEMPO 2602/2606 OVC015
     FM261300 01012KT P6SM FEW040=



000
FTUS41 KILN 260200 AAA
TAFLCK
TAF AMD
KLCK 260223Z 2602/2624 04014KT P6SM BKN040
      TEMPO 2602/2606 OVC015
     FM261300 01012KT P6SM FEW040=



000
FTUS41 KILN 260200 AAA
TAFILN
TAF AMD
KILN 260221Z 2602/2624 05012G20KT P6SM VCSH OVC015
      TEMPO 2602/2606 -SHRA OVC025
     FM260700 02012G20KT P6SM SCT015 BKN040
     FM261300 01012KT P6SM SCT040=



000
FTUS41 KILN 260200 AAA
TAFILN
TAF AMD
KILN 260221Z 2602/2624 05012G20KT P6SM VCSH OVC015
      TEMPO 2602/2606 -SHRA OVC025
     FM260700 02012G20KT P6SM SCT015 BKN040
     FM261300 01012KT P6SM SCT040=



000
FTUS41 KILN 260200 AAB
TAFDAY
TAF AMD
KDAY 260220Z 2602/2624 04014KT P6SM VCSH OVC015
      TEMPO 2602/2605 -SHRA OVC040
     FM260500 04014KT P6SM BKN040
     FM261300 01014KT P6SM SCT040=



000
FTUS41 KILN 260200 AAB
TAFDAY
TAF AMD
KDAY 260220Z 2602/2624 04014KT P6SM VCSH OVC015
      TEMPO 2602/2605 -SHRA OVC040
     FM260500 04014KT P6SM BKN040
     FM261300 01014KT P6SM SCT040=



000
FTUS41 KILN 260000 AAA
TAFDAY
TAF AMD
KDAY 260057Z 2601/2624 07014KT P6SM VCSH BKN040
      TEMPO 2601/2605 -SHRA OVC015
     FM260500 04014KT P6SM BKN040
     FM261300 01014KT P6SM SCT040=



000
FTUS41 KILN 252300
TAFDAY
TAF
KDAY 252328Z 2600/2624 05014KT P6SM VCSH OVC015
     FM260500 04014KT P6SM BKN040
     FM261300 01014KT P6SM SCT040=



000
FTUS41 KILN 252300
TAFLUK
TAF
KLUK 252328Z 2600/2624 06012KT P6SM VCSH OVC012
      TEMPO 2600/2604 4SM -SHRA BR OVC008
     FM260800 03012KT P6SM SCT012 BKN025
     FM261300 01012KT P6SM BKN040=



000
FTUS41 KILN 252300
TAFILN
TAF
KILN 252328Z 2600/2624 05012G20KT P6SM VCSH OVC012
      TEMPO 2600/2602 OVC008
     FM260600 02012G20KT P6SM SCT015 BKN040
     FM261300 01012KT P6SM SCT040=



000
FTUS41 KILN 252300
TAFCMH
TAF
KCMH 252328Z 2600/2624 05012KT P6SM VCSH OVC040
     FM260300 04014KT P6SM BKN040
     FM261300 01012KT P6SM FEW040=



000
FTUS41 KILN 252300
TAFLCK
TAF
KLCK 252328Z 2600/2624 05012KT P6SM VCSH OVC040
     FM260300 04014KT P6SM BKN040
     FM261300 01012KT P6SM FEW040=



000
FTUS41 KILN 252300
TAFCVG
TAF
KCVG 252328Z 2600/2706 06012G20KT P6SM VCSH OVC008
      TEMPO 2600/2604 4SM -SHRA BR OVC005
     FM260800 03012G20KT P6SM SCT008 BKN025
     FM261300 01012KT P6SM BKN040
     FM262300 01008KT P6SM SCT040=



000
FTUS41 KILN 252300
TAFDAY
TAF
KDAY 252328Z 2600/2624 05014KT P6SM VCSH OVC015
     FM260500 04014KT P6SM BKN040
     FM261300 01014KT P6SM SCT040=



000
FTUS41 KILN 252300
TAFCVG
TAF
KCVG 252328Z 2600/2706 06012G20KT P6SM VCSH OVC008
      TEMPO 2600/2604 4SM -SHRA BR OVC005
     FM260800 03012G20KT P6SM SCT008 BKN025
     FM261300 01012KT P6SM BKN040
     FM262300 01008KT P6SM SCT040=



000
FTUS41 KILN 252300
TAFCMH
TAF
KCMH 252328Z 2600/2624 05012KT P6SM VCSH OVC040
     FM260300 04014KT P6SM BKN040
     FM261300 01012KT P6SM FEW040=



000
FTUS41 KILN 252300
TAFLUK
TAF
KLUK 252328Z 2600/2624 06012KT P6SM VCSH OVC012
      TEMPO 2600/2604 4SM -SHRA BR OVC008
     FM260800 03012KT P6SM SCT012 BKN025
     FM261300 01012KT P6SM BKN040=



000
FTUS41 KILN 252300
TAFLCK
TAF
KLCK 252328Z 2600/2624 05012KT P6SM VCSH OVC040
     FM260300 04014KT P6SM BKN040
     FM261300 01012KT P6SM FEW040=



000
FTUS41 KILN 252300
TAFILN
TAF
KILN 252328Z 2600/2624 05012G20KT P6SM VCSH OVC012
      TEMPO 2600/2602 OVC008
     FM260600 02012G20KT P6SM SCT015 BKN040
     FM261300 01012KT P6SM SCT040=



000
FTUS41 KILN 252200 AAA
TAFLCK
TAF AMD
KLCK 252208Z 2522/2618 08008G18KT P6SM -SHRA SCT025 OVC040
      TEMPO 2522/2523 4SM RA BR
     FM260000 06013KT P6SM VCSH SCT025 OVC040
     FM260300 04013KT P6SM BKN040
     FM261300 01013KT P6SM FEW040=



000
FTUS41 KILN 252200 AAA
TAFLCK
TAF AMD
KLCK 252208Z 2522/2618 08008G18KT P6SM -SHRA SCT025 OVC040
      TEMPO 2522/2523 4SM RA BR
     FM260000 06013KT P6SM VCSH SCT025 OVC040
     FM260300 04013KT P6SM BKN040
     FM261300 01013KT P6SM FEW040=



000
FTUS41 KILN 252200 AAB
TAFCMH
TAF AMD
KCMH 252207Z 2522/2618 08012KT P6SM -SHRA SCT025 OVC040
      TEMPO 2522/2523 4SM RA BR
     FM260000 06013KT P6SM VCSH SCT025 OVC040
     FM260300 04013KT P6SM BKN040
     FM261300 01013KT P6SM FEW040=



000
FTUS41 KILN 252000 AAB
TAFLUK
TAF AMD
KLUK 252058Z 2521/2618 08010KT 5SM BR VCTS OVC012CB
      TEMPO 2521/2523 2SM SHRA OVC008
     FM252300 06012G20KT P6SM VCSH OVC008
     FM260800 02012G20KT P6SM SCT008 BKN035
     FM261300 01013KT P6SM SCT035=



000
FTUS41 KILN 252000 AAB
TAFLUK
TAF AMD
KLUK 252058Z 2521/2618 08010KT 5SM BR VCTS OVC012CB
      TEMPO 2521/2523 2SM SHRA OVC008
     FM252300 06012G20KT P6SM VCSH OVC008
     FM260800 02012G20KT P6SM SCT008 BKN035
     FM261300 01013KT P6SM SCT035=



000
FTUS41 KILN 252000 AAB
TAFCVG
TAF AMD
KCVG 252057Z 2521/2624 08012KT 4SM BR VCTS OVC008CB
      TEMPO 2521/2523 2SM SHRA OVC005
     FM252300 06012G20KT P6SM VCSH OVC008
     FM260800 02012G20KT P6SM SCT008 BKN035
     FM261300 01013KT P6SM SCT035=



000
FTUS41 KILN 252000 AAA
TAFILN
TAF AMD
KILN 252045Z 2521/2618 08012G20KT 3SM -SHRA VCTS OVC015CB
      TEMPO 2521/2522 1SM SHRA BR OVC008
     FM252200 06012G20KT P6SM VCSH OVC008
     FM260100 03012G20KT P6SM OVC008
     FM260600 02013KT P6SM SCT008 BKN050
     FM261300 01012KT P6SM SCT035=



000
FTUS41 KILN 252000 AAA
TAFILN
TAF AMD
KILN 252045Z 2521/2618 08012G20KT 3SM -SHRA VCTS OVC015CB
      TEMPO 2521/2522 1SM SHRA BR OVC008
     FM252200 06012G20KT P6SM VCSH OVC008
     FM260100 03012G20KT P6SM OVC008
     FM260600 02013KT P6SM SCT008 BKN050
     FM261300 01012KT P6SM SCT035=



000
FTUS41 KILN 252000 AAB
TAFDAY
TAF AMD
KDAY 252008Z 2520/2618 05010G20KT 2SM RA BR OVC012
     FM252100 05010G20KT 4SM -SHRA BR SCT009 OVC012
     FM260000 05013KT P6SM SCT009 OVC012
     FM260500 04013KT P6SM BKN040
     FM261300 01013KT P6SM FEW040=



000
FTUS41 KILN 252000 AAB
TAFDAY
TAF AMD
KDAY 252008Z 2520/2618 05010G20KT 2SM RA BR OVC012
     FM252100 05010G20KT 4SM -SHRA BR SCT009 OVC012
     FM260000 05013KT P6SM SCT009 OVC012
     FM260500 04013KT P6SM BKN040
     FM261300 01013KT P6SM FEW040=



000
FTUS41 KILN 251900 AAA
TAFLUK
TAF AMD
KLUK 251958Z 2520/2618 08010KT 4SM -SHRA BR VCTS SCT008 OVC015CB
     FM252100 06012G20KT P6SM VCSH OVC008
     FM260800 02012G20KT P6SM SCT008 BKN035
     FM261300 01013KT P6SM SCT035=



000
FTUS41 KILN 251900 AAA
TAFILN
TAF AMD
KILN 251940Z 2520/2618 08012G20KT 3SM -SHRA VCTS OVC025CB
      TEMPO 2520/2522 1SM SHRA BR OVC015
     FM252200 06012G20KT P6SM VCSH OVC008
     FM260100 03012G20KT P6SM OVC008
     FM260600 02013KT P6SM SCT008 BKN050
     FM261300 01012KT P6SM SCT035=



000
FTUS41 KILN 251800 AAA
TAFCMH
TAF AMD
KCMH 251833Z 2519/2618 08012KT P6SM -SHRA SCT025 OVC040
     FM260000 06013KT P6SM VCSH SCT025 OVC040
     FM260300 04013KT P6SM BKN040
     FM261300 01013KT P6SM FEW040=



000
FTUS41 KILN 251800 AAA
TAFCMH
TAF AMD
KCMH 251833Z 2519/2618 08012KT P6SM -SHRA SCT025 OVC040
     FM260000 06013KT P6SM VCSH SCT025 OVC040
     FM260300 04013KT P6SM BKN040
     FM261300 01013KT P6SM FEW040=



000
FTUS41 KILN 251800 AAA
TAFDAY
TAF AMD
KDAY 251832Z 2519/2618 08010G20KT 3SM -SHRA BR OVC012
     FM252100 07010G20KT 4SM -SHRA BR SCT009 OVC012
     FM260000 05013KT P6SM SCT009 OVC012
     FM260500 04013KT P6SM BKN040
     FM261300 01013KT P6SM FEW040=



000
FTUS41 KILN 251800 AAA
TAFDAY
TAF AMD
KDAY 251832Z 2519/2618 08010G20KT 3SM -SHRA BR OVC012
     FM252100 07010G20KT 4SM -SHRA BR SCT009 OVC012
     FM260000 05013KT P6SM SCT009 OVC012
     FM260500 04013KT P6SM BKN040
     FM261300 01013KT P6SM FEW040=



000
FTUS41 KILN 251800 AAA
TAFCVG
TAF AMD
KCVG 251831Z 2519/2624 08012KT 3SM -SHRA BR BKN008 OVC015
     FM252100 06012G20KT P6SM VCSH OVC008
     FM260800 02012G20KT P6SM SCT008 BKN035
     FM261300 01013KT P6SM SCT035=



000
FTUS41 KILN 251700
TAFCVG
TAF
KCVG 251729Z 2518/2624 08012KT 3SM -SHRA BR SCT008 OVC015
      TEMPO 2518/2521 OVC008
     FM252100 06012G20KT P6SM VCSH OVC008
     FM260800 02012G20KT P6SM SCT008 BKN035
     FM261300 01013KT P6SM SCT035=



000
FTUS41 KILN 251700
TAFILN
TAF
KILN 251729Z 2518/2618 09012G20KT 4SM -SHRA SCT025 OVC035
     FM251900 08012G20KT 4SM -SHRA OVC025
     FM252200 06012G20KT P6SM VCSH OVC008
     FM260100 03012G20KT P6SM OVC008
     FM260600 02013KT P6SM SCT008 BKN050
     FM261300 01012KT P6SM SCT035=



000
FTUS41 KILN 251700
TAFDAY
TAF
KDAY 251729Z 2518/2618 10013G22KT 3SM -SHRA BR SCT015 OVC025
     FM252100 07012G22KT 4SM -SHRA BR SCT009 OVC012
     FM260000 05013KT P6SM SCT009 OVC012
     FM260500 04013KT P6SM BKN040
     FM261300 01013KT P6SM FEW040=



000
FTUS41 KILN 251700
TAFLUK
TAF
KLUK 251729Z 2518/2618 08010KT 4SM -SHRA BR SCT008 OVC015
      TEMPO 2518/2521 OVC008
     FM252100 06012G20KT P6SM VCSH OVC008
     FM260800 02012G20KT P6SM SCT008 BKN035
     FM261300 01013KT P6SM SCT035=



000
FTUS41 KILN 251700
TAFLCK
TAF
KLCK 251729Z 2518/2618 08008G18KT P6SM -SHRA SCT025 OVC040
     FM260000 06013KT P6SM VCSH SCT025 OVC040
     FM260300 04013KT P6SM BKN040
     FM261300 01013KT P6SM FEW040=



000
FTUS41 KILN 251700
TAFLUK
TAF
KLUK 251729Z 2518/2618 08010KT 4SM -SHRA BR SCT008 OVC015
      TEMPO 2518/2521 OVC008
     FM252100 06012G20KT P6SM VCSH OVC008
     FM260800 02012G20KT P6SM SCT008 BKN035
     FM261300 01013KT P6SM SCT035=



000
FTUS41 KILN 251700
TAFCMH
TAF
KCMH 251729Z 2518/2618 08011G20KT 5SM -SHRA SCT025 OVC040
     FM260000 06013KT P6SM VCSH SCT025 OVC040
     FM260300 04013KT P6SM BKN040
     FM261300 01013KT P6SM FEW040=



000
FTUS41 KILN 251700
TAFLCK
TAF
KLCK 251729Z 2518/2618 08008G18KT P6SM -SHRA SCT025 OVC040
     FM260000 06013KT P6SM VCSH SCT025 OVC040
     FM260300 04013KT P6SM BKN040
     FM261300 01013KT P6SM FEW040=



000
FTUS41 KILN 251700
TAFILN
TAF
KILN 251729Z 2518/2618 09012G20KT 4SM -SHRA SCT025 OVC035
     FM251900 08012G20KT 4SM -SHRA OVC025
     FM252200 06012G20KT P6SM VCSH OVC008
     FM260100 03012G20KT P6SM OVC008
     FM260600 02013KT P6SM SCT008 BKN050
     FM261300 01012KT P6SM SCT035=



000
FTUS41 KILN 251700
TAFCVG
TAF
KCVG 251729Z 2518/2624 08012KT 3SM -SHRA BR SCT008 OVC015
      TEMPO 2518/2521 OVC008
     FM252100 06012G20KT P6SM VCSH OVC008
     FM260800 02012G20KT P6SM SCT008 BKN035
     FM261300 01013KT P6SM SCT035=



000
FTUS41 KILN 251700
TAFDAY
TAF
KDAY 251729Z 2518/2618 10013G22KT 3SM -SHRA BR SCT015 OVC025
     FM252100 07012G22KT 4SM -SHRA BR SCT009 OVC012
     FM260000 05013KT P6SM SCT009 OVC012
     FM260500 04013KT P6SM BKN040
     FM261300 01013KT P6SM FEW040=



000
FTUS41 KILN 251700
TAFCMH
TAF
KCMH 251729Z 2518/2618 08011G20KT 5SM -SHRA SCT025 OVC040
     FM260000 06013KT P6SM VCSH SCT025 OVC040
     FM260300 04013KT P6SM BKN040
     FM261300 01013KT P6SM FEW040=



000
FTUS41 KILN 251700 AAA
TAFCVG
TAF AMD
KCVG 251720Z 2517/2618 10012KT 2SM -SHRA BR OVC010
     FM251800 09012KT P6SM VCSH OVC015
     FM252000 06013KT 5SM -SHRA VCTS BKN008 OVC025CB
     FM252300 04012G22KT P6SM VCSH OVC008
     FM260800 02012G22KT P6SM SCT008 BKN035
     FM261300 01012KT P6SM SCT035=



000
FTUS41 KILN 251600 AAB
TAFCMH
TAF AMD
KCMH 251611Z 2516/2612 08011G20KT P6SM -SHRA SCT025 OVC040
     FM252000 07011G20KT 4SM -SHRA BKN025 OVC040
     FM260000 02012KT P6SM VCSH SCT008 OVC035
     FM260600 01012KT P6SM SCT035=



000
FTUS41 KILN 251600 AAB
TAFLCK
TAF AMD
KLCK 251611Z 2516/2612 08011G20KT P6SM -SHRA SCT025 OVC040
     FM252000 07011G20KT 4SM -SHRA BKN025 OVC040
     FM260000 03010KT P6SM VCSH SCT008 OVC035
     FM260600 01012KT P6SM SCT035=



000
FTUS41 KILN 251600 AAB
TAFCMH
TAF AMD
KCMH 251611Z 2516/2612 08011G20KT P6SM -SHRA SCT025 OVC040
     FM252000 07011G20KT 4SM -SHRA BKN025 OVC040
     FM260000 02012KT P6SM VCSH SCT008 OVC035
     FM260600 01012KT P6SM SCT035=



000
FTUS41 KILN 251600 AAB
TAFLCK
TAF AMD
KLCK 251611Z 2516/2612 08011G20KT P6SM -SHRA SCT025 OVC040
     FM252000 07011G20KT 4SM -SHRA BKN025 OVC040
     FM260000 03010KT P6SM VCSH SCT008 OVC035
     FM260600 01012KT P6SM SCT035=



000
FTUS41 KILN 251500 AAA
TAFDAY
TAF AMD
KDAY 251516Z 2515/2612 10010G20KT P6SM -SHRA OVC035
     FM251800 10013G22KT 4SM -SHRA SCT015 OVC025
     FM252100 08012G22KT P6SM VCSH OVC008
     FM260400 04013KT P6SM SCT010 BKN040=



000
FTUS41 KILN 251400 AAA
TAFCVG
TAF AMD
KCVG 251459Z 2515/2618 10012KT 5SM -SHRA BR OVC025
     FM251800 09012KT P6SM VCSH OVC015
     FM252000 06013KT 5SM -SHRA VCTS BKN008 OVC025CB
     FM252300 04012G22KT P6SM VCSH OVC008
     FM260800 02012G22KT P6SM SCT008 BKN035
     FM261300 01012KT P6SM SCT035=



000
FTUS41 KILN 251200 AAA
TAFLCK
TAF AMD
KLCK 251206Z 2512/2612 08008G18KT P6SM VCSH OVC070
     FM251700 08011G20KT P6SM -SHRA SCT025 OVC040
     FM252000 07011G20KT 4SM -SHRA BKN025 OVC040
     FM260000 03010KT P6SM VCSH SCT008 OVC035
     FM260600 01012KT P6SM SCT035=



000
FTUS41 KILN 251200 AAA
TAFCMH
TAF AMD
KCMH 251205Z 2512/2612 09008G18KT P6SM VCSH OVC070
     FM251700 08011G20KT P6SM -SHRA SCT025 OVC040
     FM252000 07011G20KT 4SM -SHRA BKN025 OVC040
     FM260000 02012KT P6SM VCSH SCT008 OVC035
     FM260600 01012KT P6SM SCT035=



000
FTUS41 KILN 251100
TAFCVG
TAF
KCVG 251120Z 2512/2618 12005KT P6SM VCSH OVC035
     FM251400 12012KT 5SM -SHRA BR OVC025
     FM251800 09012KT P6SM VCSH OVC015
     FM252000 06013KT 5SM -SHRA VCTS BKN008 OVC025CB
     FM252300 04014G24KT P6SM VCSH OVC008
     FM260800 02015G24KT P6SM SCT008 BKN035
     FM261300 01012KT P6SM SCT035=



000
FTUS41 KILN 251100
TAFLUK
TAF
KLUK 251120Z 2512/2612 11003KT P6SM VCSH OVC040
     FM251500 08010KT 5SM -SHRA BR OVC025
     FM251900 08010KT P6SM VCSH OVC015
     FM252100 06010KT 5SM -SHRA VCTS BKN009CB OVC028CB
     FM260000 04013KT P6SM VCSH OVC009
     FM260800 02013G22KT P6SM SCT012 BKN035=



000
FTUS41 KILN 251100
TAFCMH
TAF
KCMH 251120Z 2512/2612 10007KT P6SM VCSH OVC070
     FM251700 08011G20KT P6SM -SHRA SCT025 OVC040
     FM252000 07011G20KT 4SM -SHRA BKN025 OVC040
     FM260000 02012KT P6SM VCSH SCT008 OVC035
     FM260600 01012KT P6SM SCT035=



000
FTUS41 KILN 251100
TAFLCK
TAF
KLCK 251120Z 2512/2612 06008KT P6SM VCSH OVC070
     FM251700 08011G20KT P6SM -SHRA SCT025 OVC040
     FM252000 07011G20KT 4SM -SHRA BKN025 OVC040
     FM260000 03010KT P6SM VCSH SCT008 OVC035
     FM260600 01012KT P6SM SCT035=



000
FTUS41 KILN 251100
TAFILN
TAF
KILN 251120Z 2512/2612 12007KT P6SM VCSH OVC060
     FM251600 10012G20KT P6SM -SHRA OVC035
     FM251800 10012G20KT 4SM -SHRA SCT015 OVC025
     FM252100 06012G20KT P6SM VCSH OVC008
     FM260000 03014G23KT P6SM OVC008
     FM260800 01010KT P6SM SCT008 BKN050=



000
FTUS41 KILN 251100
TAFDAY
TAF
KDAY 251120Z 2512/2612 09006KT P6SM VCSH OVC060
     FM251600 10012G22KT P6SM -SHRA OVC035
     FM251800 10013G22KT 4SM -SHRA SCT015 OVC025
     FM252100 08012G22KT P6SM VCSH OVC008
     FM260400 04013KT P6SM SCT010 BKN040=



000
FTUS41 KILN 250800 AAA
TAFILN
TAF AMD
KILN 250858Z 2509/2606 09006KT P6SM VCSH OVC070
     FM251200 10010KT P6SM VCSH OVC050
     FM251600 10012G20KT P6SM -SHRA OVC040
     FM251800 10012G20KT 4SM -SHRA SCT015 OVC025
     FM252100 06012G20KT 5SM BR VCSH OVC015
     FM260200 03015G25KT P6SM OVC015=



000
FTUS41 KILN 250800 AAA
TAFLCK
TAF AMD
KLCK 250858Z 2509/2606 10007KT P6SM OVC080
     FM251200 08010KT P6SM VCSH SCT050 OVC070
     FM251600 08011G21KT P6SM -SHRA SCT025 OVC040
     FM251900 07011G21KT 4SM -SHRA SCT025 OVC040
     FM260000 03010KT P6SM VCSH OVC035=



000
FTUS41 KILN 250800 AAA
TAFCMH
TAF AMD
KCMH 250858Z 2509/2606 09007KT P6SM OVC070
     FM251200 09010KT P6SM VCSH SCT050 OVC070
     FM251600 08011G21KT P6SM -SHRA SCT025 OVC040
     FM251900 07011G21KT 4SM -SHRA SCT025 OVC040
     FM260000 03010KT P6SM VCSH OVC035=



000
FTUS41 KILN 250800 AAA
TAFDAY
TAF AMD
KDAY 250858Z 2509/2606 10003KT P6SM -RA VCSH BKN070 OVC090
     FM251200 10011KT P6SM VCSH OVC050
     FM251600 10012G22KT P6SM -SHRA OVC040
     FM251800 10013G22KT 4SM -SHRA SCT015 OVC025
     FM252100 08012G22KT 5SM BR VCSH OVC018
     FM260300 04013KT P6SM SCT018 OVC040=



000
FTUS41 KILN 250800 AAA
TAFLUK
TAF AMD
KLUK 250858Z 2509/2606 00000KT P6SM VCSH OVC060
     FM251200 10006KT P6SM VCSH OVC050
     FM251500 08010KT 5SM -SHRA BR OVC015
     FM251900 08010KT P6SM VCSH OVC015
     FM252100 06010KT 5SM -SHRA VCTS BKN015CB OVC025
     FM252300 04010KT 3SM BR VCSH OVC009
     FM260300 04013KT P6SM OVC015=



000
FTUS41 KILN 250800 AAA
TAFCVG
TAF AMD
KCVG 250858Z 2509/2612 00000KT P6SM VCSH OVC050
     FM251100 10012KT P6SM VCSH OVC050
     FM251400 12012KT 5SM -SHRA BR OVC015
     FM251800 09012KT P6SM VCSH OVC015
     FM252000 06013KT 5SM -SHRA VCTS BKN015CB OVC025
     FM252300 04013KT 3SM BR VCSH OVC008
     FM260300 04014G24KT P6SM OVC012=



000
FTUS41 KILN 250500
TAFCVG
TAF
KCVG 250530Z 2506/2612 11006KT P6SM VCSH OVC070
     FM251100 10012KT P6SM VCSH OVC050
     FM251400 12012KT 5SM -SHRA BR OVC015
     FM251800 09012KT P6SM VCSH OVC015
     FM252000 06013KT 5SM -SHRA VCTS BKN015CB OVC025
     FM252300 04013KT 3SM BR VCSH OVC008
     FM260300 04014G24KT P6SM OVC012=



000
FTUS41 KILN 250500
TAFCMH
TAF
KCMH 250530Z 2506/2606 00000KT P6SM BKN090 OVC120
     FM251200 09010KT P6SM VCSH SCT050 OVC070
     FM251600 08011G21KT P6SM -SHRA SCT025 OVC040
     FM251900 07011G21KT 4SM -SHRA SCT025 OVC040
     FM260000 03010KT P6SM VCSH OVC035=



000
FTUS41 KILN 250500
TAFLCK
TAF
KLCK 250530Z 2506/2606 00000KT P6SM OVC100
     FM251200 08010KT P6SM VCSH SCT050 OVC070
     FM251600 08011G21KT P6SM -SHRA SCT025 OVC040
     FM251900 07011G21KT 4SM -SHRA SCT025 OVC040
     FM260000 03010KT P6SM VCSH OVC035=



000
FTUS41 KILN 250500
TAFILN
TAF
KILN 250530Z 2506/2606 07005KT P6SM VCSH BKN080 OVC090
     FM251200 10010KT P6SM VCSH OVC050
     FM251600 10012G20KT P6SM -SHRA OVC040
     FM251800 10012G20KT 4SM -SHRA SCT015 OVC025
     FM252100 06012G20KT 5SM BR VCSH OVC015
     FM260200 03015G25KT P6SM OVC015=



000
FTUS41 KILN 250500
TAFDAY
TAF
KDAY 250530Z 2506/2606 14005KT P6SM VCSH FEW060 BKN080 OVC090
     FM250700 10008KT P6SM VCSH OVC080
     FM251200 10011KT P6SM VCSH OVC050
     FM251600 10012G22KT P6SM -SHRA OVC040
     FM251800 10013G22KT 4SM -SHRA SCT015 OVC025
     FM252100 08012G22KT 5SM BR VCSH OVC018
     FM260300 04013KT P6SM SCT018 OVC040=



000
FTUS41 KILN 250500
TAFLUK
TAF
KLUK 250530Z 2506/2606 00000KT P6SM VCSH BKN070 OVC090
     FM251200 10006KT P6SM VCSH OVC050
     FM251500 08010KT 5SM -SHRA BR OVC015
     FM251900 08010KT P6SM VCSH OVC015
     FM252100 06010KT 5SM -SHRA VCTS BKN015CB OVC025
     FM252300 04010KT 3SM BR VCSH OVC009
     FM260300 04013KT P6SM OVC015=



000
FTUS41 KILN 242300
TAFLUK
TAF
KLUK 242338Z 2500/2524 13003KT P6SM OVC080
     FM250600 12005KT P6SM VCSH OVC060
     FM251200 10006KT P6SM -SHRA OVC050
     FM251600 08010KT 5SM -SHRA BR OVC015
     FM251900 08010KT P6SM VCSH OVC015
     FM252100 06010KT 5SM -SHRA VCTS BKN015CB OVC025
     FM252300 04010KT 3SM BR VCSH OVC009=



000
FTUS41 KILN 242300
TAFDAY
TAF
KDAY 242338Z 2500/2524 14005KT P6SM BKN080 OVC100
     FM250700 10008KT P6SM VCSH OVC080
     FM251200 10011KT P6SM -SHRA OVC050
     FM251600 10012G22KT P6SM -SHRA OVC040
     FM251800 10013G22KT 4SM -SHRA SCT015 OVC025
     FM252100 08012G22KT 5SM BR VCSH OVC018=



000
FTUS41 KILN 242300
TAFLCK
TAF
KLCK 242338Z 2500/2524 VRB03KT P6SM BKN100 OVC200
     FM250600 07008KT P6SM OVC080
     FM251200 08010KT P6SM VCSH SCT050 OVC070
     FM251600 08011G21KT P6SM -SHRA SCT025 OVC040
     FM251900 07011G21KT 4SM -SHRA BKN025 OVC040
     FM252300 06012G20KT 5SM BR VCSH OVC022=



000
FTUS41 KILN 242300
TAFCMH
TAF
KCMH 242338Z 2500/2524 VRB03KT P6SM BKN100 OVC200
     FM250600 08008KT P6SM OVC080
     FM251200 09010KT P6SM VCSH SCT050 OVC070
     FM251600 08011G21KT P6SM -SHRA SCT025 OVC040
     FM251900 07011G21KT 4SM -SHRA BKN025 OVC040
     FM252300 05012G20KT 5SM BR VCSH OVC022=



000
FTUS41 KILN 242300
TAFILN
TAF
KILN 242338Z 2500/2524 14005KT P6SM BKN080 OVC100
     FM250600 10008KT P6SM VCSH OVC070
     FM251200 10010KT P6SM -SHRA OVC050
     FM251600 10012G20KT P6SM -SHRA OVC040
     FM251800 10012G20KT 4SM -SHRA SCT015 OVC025
     FM252100 08012G20KT 5SM BR VCSH OVC015=



000
FTUS41 KILN 242300
TAFCVG
TAF
KCVG 242338Z 2500/2606 14005KT P6SM OVC080
     FM250600 11010KT P6SM VCSH OVC060
     FM251100 10012KT P6SM -SHRA OVC050
     FM251500 12012KT 5SM -SHRA BR OVC015
     FM251800 09012KT P6SM VCSH OVC015
     FM252000 06013KT 5SM -SHRA VCTS BKN015CB OVC025
     FM252300 04013KT 3SM BR VCSH OVC008
     FM260300 04016KT 3SM -SHRA BR OVC012=



000
FTUS41 KILN 242000 AAA
TAFCVG
TAF AMD
KCVG 242059Z 2421/2524 15005KT P6SM SCT120 BKN250
     FM250100 12005KT P6SM OVC080
     FM250800 12010KT P6SM VCSH OVC060
     FM251500 12012KT 5SM -SHRA BR BKN025 OVC040
     FM251900 06010KT 5SM BR OVC010=



    US Dept of Commerce
    National Oceanic and Atmospheric Administration
    National Weather Service
    1325 East West Highway
    Silver Spring, MD 20910
    Page Author: NWS Internet Services Team
Disclaimer
Information Quality
Credits
Glossary
Privacy Policy
Freedom of Information Act (FOIA)
About Us
Career Opportunities